createdAt,value
2023-05-14T00:03:51.124Z,953.93
2023-05-14T00:08:52.761Z,953.86
2023-05-14T00:14:02.646Z,953.8
2023-05-14T00:18:56.278Z,953.79
2023-05-14T00:23:58.259Z,953.71
2023-05-14T00:29:00.287Z,953.65
2023-05-14T00:34:02.447Z,953.64
2023-05-14T00:39:04.531Z,953.61
2023-05-14T00:44:06.045Z,953.6
2023-05-14T00:49:08.091Z,953.58
2023-05-14T00:54:10.034Z,953.5
2023-05-14T00:59:11.789Z,953.49
2023-05-14T01:04:23.980Z,953.47
2023-05-14T01:09:15.352Z,953.48
2023-05-14T01:14:17.281Z,953.45
2023-05-14T01:19:19.363Z,953.41
2023-05-14T01:24:20.957Z,953.4
2023-05-14T01:29:22.819Z,953.39
2023-05-14T01:34:24.212Z,953.34
2023-05-14T01:39:26.338Z,953.36
2023-05-14T01:44:28.138Z,953.34
2023-05-14T01:49:29.764Z,953.3
2023-05-14T01:54:31.392Z,953.29
2023-05-14T01:59:33.275Z,953.32
2023-05-14T02:04:34.881Z,953.24
2023-05-14T02:09:36.914Z,953.21
2023-05-14T02:14:38.331Z,953.2
2023-05-14T02:19:40.251Z,953.13
2023-05-14T02:24:41.556Z,953.15
2023-05-14T02:29:43.446Z,953.13
2023-05-14T02:34:45.572Z,953.18
2023-05-14T02:39:47.730Z,953.12
2023-05-14T02:44:49.743Z,953.09
2023-05-14T02:49:51.713Z,953.07
2023-05-14T02:54:53.434Z,953.05
2023-05-14T02:59:54.828Z,953.06
2023-05-14T03:04:56.092Z,953.01
2023-05-14T03:09:58.228Z,953.05
2023-05-14T03:15:00.257Z,952.98
2023-05-14T03:20:02.365Z,952.99
2023-05-14T03:25:04.492Z,953
2023-05-14T03:30:06.517Z,952.95
2023-05-14T03:35:08.399Z,952.95
2023-05-14T03:40:09.960Z,952.97
2023-05-14T03:45:11.135Z,952.97
2023-05-14T03:50:12.515Z,952.97
2023-05-14T03:55:13.916Z,953
2023-05-14T04:00:15.202Z,953.01
2023-05-14T04:05:16.639Z,952.98
2023-05-14T04:10:18.233Z,952.97
2023-05-14T04:15:19.685Z,952.92
2023-05-14T04:20:21.761Z,952.95
2023-05-14T04:25:23.681Z,952.96
2023-05-14T04:30:25.717Z,952.96
2023-05-14T04:35:27.434Z,952.95
2023-05-14T04:40:28.672Z,952.93
2023-05-14T04:45:31.323Z,952.95
2023-05-14T04:50:31.309Z,952.95
2023-05-14T04:55:32.549Z,952.97
2023-05-14T05:00:33.893Z,952.97
2023-05-14T05:05:35.484Z,953.06
2023-05-14T05:10:36.685Z,953.08
2023-05-14T05:15:38.360Z,953.13
2023-05-14T05:20:40.377Z,953.16
2023-05-14T05:25:42.195Z,953.17
2023-05-14T05:30:44.122Z,953.13
2023-05-14T05:35:45.736Z,953.16
2023-05-14T05:40:47.282Z,953.12
2023-05-14T05:45:48.866Z,953.06
2023-05-14T05:50:50.103Z,953.09
2023-05-14T05:55:51.766Z,953.06
2023-05-14T06:00:52.938Z,953.03
2023-05-14T06:05:54.709Z,953.03
2023-05-14T06:10:56.727Z,953.07
2023-05-14T06:15:58.221Z,953.03
2023-05-14T06:21:00.228Z,952.97
2023-05-14T06:26:01.781Z,952.91
2023-05-14T06:31:03.334Z,952.96
2023-05-14T06:36:11.570Z,953.01
2023-05-14T06:41:13.405Z,952.99
2023-05-14T06:46:14.863Z,952.83
2023-05-14T06:51:16.227Z,952.79
2023-05-14T06:56:17.919Z,952.79
2023-05-14T07:01:19.461Z,952.76
2023-05-14T07:06:20.691Z,952.7
2023-05-14T07:11:22.336Z,952.63
2023-05-14T07:16:24.319Z,952.47
2023-05-14T07:21:26.373Z,952.51
2023-05-14T07:26:32.561Z,952.61
2023-05-14T07:31:28.896Z,952.7
2023-05-14T07:36:30.385Z,952.74
2023-05-14T07:41:32.086Z,952.76
2023-05-14T07:46:33.997Z,952.75
2023-05-14T07:51:35.244Z,952.74
2023-05-14T07:56:36.638Z,952.79
2023-05-14T08:01:39.395Z,952.73
2023-05-14T08:06:40.500Z,952.73
2023-05-14T08:11:41.933Z,952.74
2023-05-14T08:16:44.128Z,952.68
2023-05-14T08:21:45.964Z,952.66
2023-05-14T08:26:47.178Z,952.66
2023-05-14T08:31:48.823Z,952.61
2023-05-14T08:36:50.623Z,952.6
2023-05-14T08:41:52.568Z,952.56
2023-05-14T08:46:53.838Z,952.59
2023-05-14T08:51:55.171Z,952.55
2023-05-14T08:57:05.756Z,952.62
2023-05-14T09:01:58.794Z,952.62
2023-05-14T09:07:00.587Z,952.51
2023-05-14T09:12:02.414Z,952.57
2023-05-14T09:17:04.268Z,952.57
2023-05-14T09:22:05.447Z,952.7
2023-05-14T09:27:06.857Z,952.57
2023-05-14T09:32:08.512Z,952.56
2023-05-14T09:37:10.001Z,952.53
2023-05-14T09:42:11.428Z,952.47
2023-05-14T09:47:12.952Z,952.36
2023-05-14T09:52:14.670Z,952.35
2023-05-14T09:57:15.921Z,952.33
2023-05-14T10:02:17.672Z,952.3
2023-05-14T10:07:19.760Z,952.32
2023-05-14T10:12:21.284Z,952.33
2023-05-14T10:17:22.756Z,952.31
2023-05-14T10:22:24.802Z,952.31
2023-05-14T10:27:26.099Z,952.32
2023-05-14T10:32:27.544Z,952.36
2023-05-14T10:37:29.089Z,952.34
2023-05-14T10:42:31.076Z,952.33
2023-05-14T10:47:33.273Z,952.33
2023-05-14T10:52:34.897Z,952.3
2023-05-14T10:57:37.101Z,952.3
2023-05-14T11:02:39.162Z,952.23
2023-05-14T11:07:40.525Z,952.19
2023-05-14T11:12:42.558Z,952.15
2023-05-14T11:17:44.714Z,952.05
2023-05-14T11:22:46.448Z,951.96
2023-05-14T11:27:47.825Z,951.91
2023-05-14T11:32:49.671Z,951.87
2023-05-14T11:37:51.790Z,951.82
2023-05-14T11:42:53.217Z,951.76
2023-05-14T11:47:55.424Z,951.61
2023-05-14T11:52:56.697Z,951.49
2023-05-14T11:57:58.871Z,951.44
2023-05-14T12:03:00.916Z,951.39
2023-05-14T12:08:02.820Z,951.25
2023-05-14T12:13:04.480Z,951.18
2023-05-14T12:18:10.977Z,951.15
2023-05-14T12:23:07.928Z,951.13
2023-05-14T12:28:09.094Z,951.05
2023-05-14T12:33:10.902Z,951.05
2023-05-14T12:38:12.552Z,950.97
2023-05-14T13:03:22.234Z,950.48
2023-05-14T13:33:32.454Z,950.16
2023-05-14T13:43:35.433Z,949.95
2023-05-14T14:03:42.319Z,949.62
2023-05-14T14:43:55.975Z,949.95
2023-05-14T14:48:57.812Z,950.02
2023-05-14T14:53:59.405Z,950.05
2023-05-14T14:59:00.607Z,950.17
2023-05-14T15:04:02.446Z,950.2
2023-05-14T15:09:03.748Z,950.1
2023-05-14T15:14:05.388Z,950.03
2023-05-14T15:19:07.170Z,950.03
2023-05-14T15:24:08.782Z,950.07
2023-05-14T15:29:10.364Z,950.16
2023-05-14T15:34:12.508Z,950.2
2023-05-14T15:39:14.463Z,950.25
2023-05-14T15:44:16.540Z,950.31
2023-05-14T15:49:18.560Z,950.37
2023-05-14T15:54:20.317Z,950.39
2023-05-14T15:59:21.859Z,950.37
2023-05-14T16:04:23.631Z,950.36
2023-05-14T16:09:25.168Z,950.41
2023-05-14T16:14:26.625Z,950.38
2023-05-14T16:19:28.424Z,950.38
2023-05-14T16:24:30.437Z,950.4
2023-05-14T16:29:32.057Z,950.4
2023-05-14T16:34:34.037Z,950.48
2023-05-14T16:39:35.760Z,950.47
2023-05-14T16:44:37.837Z,950.47
2023-05-14T16:49:39.974Z,950.48
2023-05-14T16:54:41.570Z,950.42
2023-05-14T16:59:43.268Z,950.38
2023-05-14T17:04:45.427Z,950.43
2023-05-14T17:09:46.844Z,950.36
2023-05-14T17:14:48.381Z,950.36
2023-05-14T17:19:50.296Z,950.35
2023-05-14T17:24:51.766Z,950.32
2023-05-14T17:29:52.998Z,950.23
2023-05-14T17:34:55.034Z,950.26
2023-05-14T17:39:56.400Z,950.22
2023-05-14T17:44:58.515Z,950.21
2023-05-14T17:49:59.946Z,950.17
2023-05-14T17:55:02.123Z,950.14
2023-05-14T18:00:04.202Z,950.13
2023-05-14T18:05:05.918Z,950.15
2023-05-14T18:10:07.982Z,950.17
2023-05-14T18:15:09.169Z,950.19
2023-05-14T18:20:10.618Z,950.19
2023-05-14T18:25:12.137Z,950.25
2023-05-14T18:30:14.000Z,950.33
2023-05-14T18:35:15.211Z,950.3
2023-05-14T18:40:18.595Z,950.3
2023-05-14T18:45:18.357Z,950.36
2023-05-14T18:50:19.585Z,950.39
2023-05-14T18:55:20.985Z,950.38
2023-05-14T19:00:22.365Z,950.37
2023-05-14T19:05:24.490Z,950.38
2023-05-14T19:10:25.845Z,950.5
2023-05-14T19:15:27.459Z,950.49
2023-05-14T19:20:28.790Z,950.51
2023-05-14T19:25:30.888Z,950.57
2023-05-14T19:30:32.860Z,950.64
2023-05-14T19:35:34.089Z,950.6
2023-05-14T19:40:35.775Z,950.53
2023-05-14T19:45:37.050Z,950.57
2023-05-14T19:50:38.556Z,950.58
2023-05-14T19:55:40.173Z,950.57
2023-05-14T20:00:51.317Z,950.57
2023-05-14T20:05:43.873Z,950.57
2023-05-14T20:10:45.721Z,950.51
2023-05-14T20:15:47.882Z,950.49
2023-05-14T20:20:49.440Z,950.44
2023-05-14T20:25:51.309Z,950.41
2023-05-14T20:30:52.925Z,950.4
2023-05-14T20:35:54.226Z,950.4
2023-05-14T20:40:56.133Z,950.32
2023-05-14T20:45:57.417Z,950.33
2023-05-14T20:50:58.653Z,950.31
2023-05-14T20:55:59.956Z,950.26
2023-05-14T21:01:01.493Z,950.23
2023-05-14T21:06:03.478Z,950.23
2023-05-14T21:11:05.414Z,950.21
2023-05-14T21:16:07.642Z,950.17
2023-05-14T21:21:09.116Z,950.24
2023-05-14T21:26:10.911Z,950.28
2023-05-14T21:31:12.424Z,950.28
2023-05-14T21:36:14.284Z,950.29
2023-05-14T21:41:16.007Z,950.22
2023-05-14T21:46:18.076Z,950.2
2023-05-14T21:51:19.876Z,950.22
2023-05-14T21:56:21.201Z,950.16
2023-05-14T22:01:23.142Z,950.16
2023-05-14T22:06:24.679Z,950.08
2023-05-14T22:11:26.093Z,950.03
2023-05-14T22:16:27.990Z,950.04
2023-05-14T22:21:29.212Z,950.02
2023-05-14T22:26:31.196Z,949.93
2023-05-14T22:31:32.473Z,950.01
2023-05-14T22:36:33.831Z,950.03
2023-05-14T22:41:35.089Z,949.95
2023-05-14T22:46:37.089Z,949.9
2023-05-14T22:51:48.154Z,949.93
2023-05-14T22:56:40.869Z,949.96
2023-05-14T23:01:42.981Z,949.93
2023-05-14T23:06:44.967Z,949.89
2023-05-14T23:11:46.262Z,949.84
2023-05-14T23:16:48.352Z,949.82
2023-05-14T23:21:56.608Z,949.77
2023-05-14T23:26:57.818Z,949.72
2023-05-14T23:31:59.160Z,949.67
2023-05-14T23:37:01.134Z,949.61
2023-05-14T23:42:03.000Z,949.61
2023-05-14T23:47:04.843Z,949.62
2023-05-14T23:52:06.257Z,949.54
2023-05-14T23:57:07.378Z,949.52
